sensor_id;sensor_type;location;lat;lon;timestamp;P1;durP1;ratioP1;P2;durP2;ratioP2
7104;SDS011;3594;42.152;24.714;2022-08-19T00:02:11;7.28;;;4.72;;
7104;SDS011;3594;42.152;24.714;2022-08-19T00:04:36;6.93;;;4.85;;
7104;SDS011;3594;42.152;24.714;2022-08-19T00:07:03;7.43;;;4.70;;
7104;SDS011;3594;42.152;24.714;2022-08-19T00:09:30;9.00;;;5.20;;
7104;SDS011;3594;42.152;24.714;2022-08-19T00:11:56;9.32;;;4.75;;
7104;SDS011;3594;42.152;24.714;2022-08-19T00:14:23;7.43;;;4.65;;
7104;SDS011;3594;42.152;24.714;2022-08-19T00:16:49;6.43;;;4.25;;
7104;SDS011;3594;42.152;24.714;2022-08-19T00:19:18;9.23;;;5.47;;
7104;SDS011;3594;42.152;24.714;2022-08-19T00:21:44;7.45;;;4.65;;
7104;SDS011;3594;42.152;24.714;2022-08-19T00:24:11;6.72;;;4.82;;
7104;SDS011;3594;42.152;24.714;2022-08-19T00:26:38;7.70;;;4.70;;
7104;SDS011;3594;42.152;24.714;2022-08-19T00:29:06;7.18;;;4.50;;
7104;SDS011;3594;42.152;24.714;2022-08-19T00:31:32;7.00;;;4.70;;
7104;SDS011;3594;42.152;24.714;2022-08-19T00:33:58;6.82;;;4.72;;
7104;SDS011;3594;42.152;24.714;2022-08-19T00:36:24;8.68;;;4.30;;
7104;SDS011;3594;42.152;24.714;2022-08-19T00:38:49;7.40;;;4.63;;
7104;SDS011;3594;42.152;24.714;2022-08-19T00:41:17;7.47;;;4.85;;
7104;SDS011;3594;42.152;24.714;2022-08-19T00:46:35;7.20;;;4.18;;
7104;SDS011;3594;42.152;24.714;2022-08-19T00:49:09;7.40;;;4.47;;
7104;SDS011;3594;42.152;24.714;2022-08-19T00:51:42;7.40;;;4.43;;
7104;SDS011;3594;42.152;24.714;2022-08-19T00:54:11;7.35;;;5.00;;
7104;SDS011;3594;42.152;24.714;2022-08-19T00:56:37;7.60;;;4.70;;
7104;SDS011;3594;42.152;24.714;2022-08-19T00:59:03;6.43;;;4.43;;
7104;SDS011;3594;42.152;24.714;2022-08-19T01:01:34;7.72;;;4.68;;
7104;SDS011;3594;42.152;24.714;2022-08-19T01:04:01;6.65;;;4.95;;
7104;SDS011;3594;42.152;24.714;2022-08-19T01:06:27;6.53;;;4.45;;
7104;SDS011;3594;42.152;24.714;2022-08-19T01:08:53;9.73;;;4.97;;
7104;SDS011;3594;42.152;24.714;2022-08-19T01:11:19;8.25;;;4.95;;
7104;SDS011;3594;42.152;24.714;2022-08-19T01:13:46;7.75;;;5.32;;
7104;SDS011;3594;42.152;24.714;2022-08-19T01:16:11;7.28;;;4.65;;
7104;SDS011;3594;42.152;24.714;2022-08-19T01:18:39;8.02;;;4.93;;
7104;SDS011;3594;42.152;24.714;2022-08-19T01:21:11;7.25;;;4.97;;
7104;SDS011;3594;42.152;24.714;2022-08-19T01:23:43;7.72;;;5.03;;
7104;SDS011;3594;42.152;24.714;2022-08-19T01:26:12;7.90;;;4.70;;
7104;SDS011;3594;42.152;24.714;2022-08-19T01:28:40;8.00;;;5.35;;
7104;SDS011;3594;42.152;24.714;2022-08-19T01:31:15;9.48;;;4.75;;
7104;SDS011;3594;42.152;24.714;2022-08-19T01:33:45;7.93;;;4.85;;
7104;SDS011;3594;42.152;24.714;2022-08-19T01:36:13;8.80;;;4.35;;
7104;SDS011;3594;42.152;24.714;2022-08-19T01:38:47;8.70;;;5.53;;
7104;SDS011;3594;42.152;24.714;2022-08-19T01:41:14;8.48;;;5.05;;
7104;SDS011;3594;42.152;24.714;2022-08-19T01:43:42;7.43;;;4.43;;
7104;SDS011;3594;42.152;24.714;2022-08-19T01:46:07;7.45;;;5.05;;
7104;SDS011;3594;42.152;24.714;2022-08-19T01:48:37;8.50;;;4.85;;
7104;SDS011;3594;42.152;24.714;2022-08-19T01:51:04;7.13;;;4.57;;
7104;SDS011;3594;42.152;24.714;2022-08-19T01:53:30;7.57;;;4.88;;
7104;SDS011;3594;42.152;24.714;2022-08-19T01:55:56;8.43;;;4.80;;
7104;SDS011;3594;42.152;24.714;2022-08-19T01:58:23;7.63;;;4.93;;
7104;SDS011;3594;42.152;24.714;2022-08-19T02:00:55;8.55;;;5.60;;
7104;SDS011;3594;42.152;24.714;2022-08-19T02:03:22;9.32;;;5.15;;
7104;SDS011;3594;42.152;24.714;2022-08-19T02:05:48;7.65;;;5.20;;
7104;SDS011;3594;42.152;24.714;2022-08-19T02:08:19;11.02;;;5.63;;
7104;SDS011;3594;42.152;24.714;2022-08-19T02:10:45;10.43;;;5.65;;
7104;SDS011;3594;42.152;24.714;2022-08-19T02:13:11;8.05;;;4.93;;
7104;SDS011;3594;42.152;24.714;2022-08-19T02:15:37;7.63;;;4.85;;
7104;SDS011;3594;42.152;24.714;2022-08-19T02:18:02;9.88;;;5.40;;
7104;SDS011;3594;42.152;24.714;2022-08-19T02:20:28;8.02;;;5.32;;
7104;SDS011;3594;42.152;24.714;2022-08-19T02:22:54;8.27;;;5.47;;
7104;SDS011;3594;42.152;24.714;2022-08-19T02:25:19;8.98;;;5.93;;
7104;SDS011;3594;42.152;24.714;2022-08-19T02:27:44;8.63;;;5.05;;
7104;SDS011;3594;42.152;24.714;2022-08-19T02:30:12;10.80;;;6.15;;
7104;SDS011;3594;42.152;24.714;2022-08-19T02:32:40;9.68;;;5.38;;
7104;SDS011;3594;42.152;24.714;2022-08-19T02:35:06;9.70;;;5.75;;
7104;SDS011;3594;42.152;24.714;2022-08-19T02:37:33;7.40;;;4.90;;
7104;SDS011;3594;42.152;24.714;2022-08-19T02:40:17;7.95;;;5.30;;
7104;SDS011;3594;42.152;24.714;2022-08-19T02:42:43;9.25;;;5.10;;
7104;SDS011;3594;42.152;24.714;2022-08-19T02:45:10;9.85;;;5.20;;
7104;SDS011;3594;42.152;24.714;2022-08-19T02:47:35;8.70;;;4.95;;
7104;SDS011;3594;42.152;24.714;2022-08-19T02:50:01;9.85;;;5.53;;
7104;SDS011;3594;42.152;24.714;2022-08-19T02:52:29;9.52;;;4.82;;
7104;SDS011;3594;42.152;24.714;2022-08-19T02:54:54;8.30;;;5.38;;
7104;SDS011;3594;42.152;24.714;2022-08-19T02:57:22;7.90;;;5.05;;
7104;SDS011;3594;42.152;24.714;2022-08-19T02:59:49;8.88;;;5.38;;
7104;SDS011;3594;42.152;24.714;2022-08-19T03:02:15;8.38;;;5.00;;
7104;SDS011;3594;42.152;24.714;2022-08-19T03:04:41;9.15;;;5.63;;
7104;SDS011;3594;42.152;24.714;2022-08-19T03:07:07;10.63;;;5.50;;
7104;SDS011;3594;42.152;24.714;2022-08-19T03:09:33;11.50;;;5.70;;
7104;SDS011;3594;42.152;24.714;2022-08-19T03:12:02;8.55;;;5.22;;
7104;SDS011;3594;42.152;24.714;2022-08-19T03:14:30;8.45;;;5.15;;
7104;SDS011;3594;42.152;24.714;2022-08-19T03:16:56;10.55;;;5.43;;
7104;SDS011;3594;42.152;24.714;2022-08-19T03:19:22;7.25;;;4.93;;
7104;SDS011;3594;42.152;24.714;2022-08-19T03:21:49;11.32;;;6.07;;
7104;SDS011;3594;42.152;24.714;2022-08-19T03:24:17;9.82;;;6.20;;
7104;SDS011;3594;42.152;24.714;2022-08-19T03:26:45;8.13;;;4.85;;
7104;SDS011;3594;42.152;24.714;2022-08-19T03:29:12;9.93;;;5.93;;
7104;SDS011;3594;42.152;24.714;2022-08-19T03:31:39;9.25;;;5.68;;
7104;SDS011;3594;42.152;24.714;2022-08-19T03:34:06;8.48;;;5.45;;
7104;SDS011;3594;42.152;24.714;2022-08-19T03:36:32;9.98;;;5.75;;
7104;SDS011;3594;42.152;24.714;2022-08-19T03:38:59;12.82;;;6.00;;
7104;SDS011;3594;42.152;24.714;2022-08-19T03:41:47;10.10;;;5.85;;
7104;SDS011;3594;42.152;24.714;2022-08-19T03:44:20;10.23;;;5.38;;
7104;SDS011;3594;42.152;24.714;2022-08-19T03:46:51;10.40;;;6.30;;
7104;SDS011;3594;42.152;24.714;2022-08-19T03:49:19;10.40;;;5.53;;
7104;SDS011;3594;42.152;24.714;2022-08-19T03:51:46;13.13;;;6.22;;
7104;SDS011;3594;42.152;24.714;2022-08-19T03:54:13;8.85;;;5.40;;
7104;SDS011;3594;42.152;24.714;2022-08-19T03:56:41;9.93;;;6.45;;
7104;SDS011;3594;42.152;24.714;2022-08-19T03:59:16;12.02;;;6.07;;
7104;SDS011;3594;42.152;24.714;2022-08-19T04:01:50;11.20;;;6.03;;
7104;SDS011;3594;42.152;24.714;2022-08-19T04:04:16;9.32;;;5.82;;
7104;SDS011;3594;42.152;24.714;2022-08-19T04:06:42;12.10;;;6.22;;
7104;SDS011;3594;42.152;24.714;2022-08-19T04:09:08;10.65;;;5.57;;
7104;SDS011;3594;42.152;24.714;2022-08-19T04:11:37;10.15;;;6.47;;
7104;SDS011;3594;42.152;24.714;2022-08-19T04:14:07;8.63;;;5.05;;
7104;SDS011;3594;42.152;24.714;2022-08-19T04:16:34;9.88;;;5.57;;
7104;SDS011;3594;42.152;24.714;2022-08-19T04:19:00;8.68;;;5.07;;
7104;SDS011;3594;42.152;24.714;2022-08-19T04:21:27;8.98;;;5.35;;
7104;SDS011;3594;42.152;24.714;2022-08-19T04:23:54;8.68;;;5.28;;
7104;SDS011;3594;42.152;24.714;2022-08-19T04:26:22;7.80;;;5.03;;
7104;SDS011;3594;42.152;24.714;2022-08-19T04:28:49;8.90;;;5.22;;
7104;SDS011;3594;42.152;24.714;2022-08-19T04:31:17;10.35;;;5.43;;
7104;SDS011;3594;42.152;24.714;2022-08-19T04:33:45;7.15;;;4.65;;
7104;SDS011;3594;42.152;24.714;2022-08-19T04:36:18;9.02;;;4.80;;
7104;SDS011;3594;42.152;24.714;2022-08-19T04:38:47;8.32;;;5.00;;
7104;SDS011;3594;42.152;24.714;2022-08-19T04:41:18;7.93;;;5.05;;
7104;SDS011;3594;42.152;24.714;2022-08-19T04:44:02;8.88;;;5.40;;
7104;SDS011;3594;42.152;24.714;2022-08-19T04:46:28;7.95;;;5.28;;
7104;SDS011;3594;42.152;24.714;2022-08-19T04:48:55;9.15;;;5.25;;
7104;SDS011;3594;42.152;24.714;2022-08-19T04:51:21;8.32;;;5.63;;
7104;SDS011;3594;42.152;24.714;2022-08-19T04:53:48;8.25;;;5.40;;
7104;SDS011;3594;42.152;24.714;2022-08-19T04:56:14;7.93;;;5.05;;
7104;SDS011;3594;42.152;24.714;2022-08-19T04:58:43;7.78;;;5.10;;
7104;SDS011;3594;42.152;24.714;2022-08-19T05:01:11;8.40;;;5.38;;
7104;SDS011;3594;42.152;24.714;2022-08-19T05:03:38;7.80;;;5.35;;
7104;SDS011;3594;42.152;24.714;2022-08-19T05:06:08;8.57;;;5.05;;
7104;SDS011;3594;42.152;24.714;2022-08-19T05:08:35;7.90;;;5.10;;
7104;SDS011;3594;42.152;24.714;2022-08-19T05:11:07;9.13;;;5.22;;
7104;SDS011;3594;42.152;24.714;2022-08-19T05:13:36;8.75;;;4.93;;
7104;SDS011;3594;42.152;24.714;2022-08-19T05:16:02;7.93;;;5.20;;
7104;SDS011;3594;42.152;24.714;2022-08-19T05:18:28;9.68;;;5.82;;
7104;SDS011;3594;42.152;24.714;2022-08-19T05:21:13;9.20;;;5.32;;
7104;SDS011;3594;42.152;24.714;2022-08-19T05:23:59;7.88;;;4.68;;
7104;SDS011;3594;42.152;24.714;2022-08-19T05:26:25;8.43;;;4.93;;
7104;SDS011;3594;42.152;24.714;2022-08-19T05:28:54;8.43;;;5.13;;
7104;SDS011;3594;42.152;24.714;2022-08-19T05:31:20;7.38;;;5.32;;
7104;SDS011;3594;42.152;24.714;2022-08-19T05:33:46;8.48;;;4.68;;
7104;SDS011;3594;42.152;24.714;2022-08-19T05:36:12;10.10;;;4.55;;
7104;SDS011;3594;42.152;24.714;2022-08-19T05:38:39;7.85;;;5.20;;
7104;SDS011;3594;42.152;24.714;2022-08-19T05:41:08;8.90;;;5.22;;
7104;SDS011;3594;42.152;24.714;2022-08-19T05:43:34;7.45;;;5.22;;
7104;SDS011;3594;42.152;24.714;2022-08-19T05:46:00;7.78;;;4.93;;
7104;SDS011;3594;42.152;24.714;2022-08-19T05:48:25;7.22;;;4.53;;
7104;SDS011;3594;42.152;24.714;2022-08-19T05:50:51;8.13;;;5.22;;
7104;SDS011;3594;42.152;24.714;2022-08-19T05:53:17;11.45;;;5.57;;
7104;SDS011;3594;42.152;24.714;2022-08-19T05:55:43;8.95;;;5.15;;
7104;SDS011;3594;42.152;24.714;2022-08-19T05:58:08;7.68;;;5.00;;
7104;SDS011;3594;42.152;24.714;2022-08-19T06:00:34;10.35;;;5.32;;
7104;SDS011;3594;42.152;24.714;2022-08-19T06:03:00;10.88;;;5.00;;
7104;SDS011;3594;42.152;24.714;2022-08-19T06:05:29;10.93;;;5.13;;
7104;SDS011;3594;42.152;24.714;2022-08-19T06:07:55;9.23;;;4.97;;
7104;SDS011;3594;42.152;24.714;2022-08-19T06:10:21;7.47;;;5.07;;
7104;SDS011;3594;42.152;24.714;2022-08-19T06:12:47;8.32;;;5.10;;
7104;SDS011;3594;42.152;24.714;2022-08-19T06:15:13;8.10;;;4.60;;
7104;SDS011;3594;42.152;24.714;2022-08-19T06:17:39;7.40;;;5.07;;
7104;SDS011;3594;42.152;24.714;2022-08-19T06:20:07;8.90;;;5.03;;
7104;SDS011;3594;42.152;24.714;2022-08-19T06:22:46;7.03;;;4.60;;
7104;SDS011;3594;42.152;24.714;2022-08-19T06:25:15;6.82;;;4.80;;
7104;SDS011;3594;42.152;24.714;2022-08-19T06:27:41;7.00;;;4.55;;
7104;SDS011;3594;42.152;24.714;2022-08-19T06:30:07;7.32;;;5.13;;
7104;SDS011;3594;42.152;24.714;2022-08-19T06:32:34;6.47;;;4.53;;
7104;SDS011;3594;42.152;24.714;2022-08-19T06:35:00;7.68;;;4.90;;
7104;SDS011;3594;42.152;24.714;2022-08-19T06:37:25;7.20;;;4.43;;
7104;SDS011;3594;42.152;24.714;2022-08-19T06:39:51;7.50;;;4.90;;
7104;SDS011;3594;42.152;24.714;2022-08-19T06:42:16;8.80;;;4.90;;
7104;SDS011;3594;42.152;24.714;2022-08-19T06:44:44;8.10;;;5.10;;
7104;SDS011;3594;42.152;24.714;2022-08-19T06:47:13;7.85;;;5.15;;
7104;SDS011;3594;42.152;24.714;2022-08-19T06:49:41;7.00;;;4.68;;
7104;SDS011;3594;42.152;24.714;2022-08-19T06:52:07;7.55;;;4.55;;
7104;SDS011;3594;42.152;24.714;2022-08-19T06:54:33;8.13;;;4.75;;
7104;SDS011;3594;42.152;24.714;2022-08-19T06:56:59;8.60;;;4.85;;
7104;SDS011;3594;42.152;24.714;2022-08-19T06:59:28;7.43;;;4.75;;
7104;SDS011;3594;42.152;24.714;2022-08-19T07:01:58;7.85;;;4.97;;
7104;SDS011;3594;42.152;24.714;2022-08-19T07:04:27;6.35;;;4.57;;
7104;SDS011;3594;42.152;24.714;2022-08-19T07:06:56;7.47;;;4.55;;
7104;SDS011;3594;42.152;24.714;2022-08-19T07:09:35;7.40;;;4.80;;
7104;SDS011;3594;42.152;24.714;2022-08-19T07:12:03;9.32;;;5.63;;
7104;SDS011;3594;42.152;24.714;2022-08-19T07:14:31;6.47;;;4.70;;
7104;SDS011;3594;42.152;24.714;2022-08-19T07:17:00;7.72;;;4.47;;
7104;SDS011;3594;42.152;24.714;2022-08-19T07:19:26;7.18;;;4.28;;
7104;SDS011;3594;42.152;24.714;2022-08-19T07:21:52;6.05;;;4.20;;
7104;SDS011;3594;42.152;24.714;2022-08-19T07:24:19;7.32;;;4.50;;
7104;SDS011;3594;42.152;24.714;2022-08-19T07:26:48;6.18;;;4.05;;
7104;SDS011;3594;42.152;24.714;2022-08-19T07:29:13;6.50;;;4.28;;
7104;SDS011;3594;42.152;24.714;2022-08-19T07:31:39;7.63;;;4.43;;
7104;SDS011;3594;42.152;24.714;2022-08-19T07:34:05;7.43;;;4.80;;
7104;SDS011;3594;42.152;24.714;2022-08-19T07:36:33;7.32;;;4.32;;
7104;SDS011;3594;42.152;24.714;2022-08-19T07:39:02;5.45;;;3.80;;
7104;SDS011;3594;42.152;24.714;2022-08-19T07:41:31;5.70;;;4.07;;
7104;SDS011;3594;42.152;24.714;2022-08-19T07:43:57;5.45;;;3.90;;
7104;SDS011;3594;42.152;24.714;2022-08-19T07:46:28;6.22;;;4.20;;
7104;SDS011;3594;42.152;24.714;2022-08-19T07:48:56;6.03;;;4.30;;
7104;SDS011;3594;42.152;24.714;2022-08-19T07:51:22;5.75;;;4.15;;
7104;SDS011;3594;42.152;24.714;2022-08-19T07:53:48;8.15;;;4.57;;
7104;SDS011;3594;42.152;24.714;2022-08-19T07:56:16;6.75;;;4.53;;
7104;SDS011;3594;42.152;24.714;2022-08-19T07:58:44;5.70;;;4.13;;
7104;SDS011;3594;42.152;24.714;2022-08-19T08:01:11;7.13;;;4.78;;
7104;SDS011;3594;42.152;24.714;2022-08-19T08:03:39;8.13;;;4.80;;
7104;SDS011;3594;42.152;24.714;2022-08-19T08:06:23;6.30;;;4.30;;
7104;SDS011;3594;42.152;24.714;2022-08-19T08:09:08;5.97;;;4.60;;
7104;SDS011;3594;42.152;24.714;2022-08-19T08:11:37;7.20;;;4.65;;
7104;SDS011;3594;42.152;24.714;2022-08-19T08:14:03;6.57;;;4.75;;
7104;SDS011;3594;42.152;24.714;2022-08-19T08:16:30;6.07;;;4.20;;
7104;SDS011;3594;42.152;24.714;2022-08-19T08:18:59;7.50;;;4.78;;
7104;SDS011;3594;42.152;24.714;2022-08-19T08:21:25;6.43;;;4.13;;
7104;SDS011;3594;42.152;24.714;2022-08-19T08:23:51;7.55;;;4.47;;
7104;SDS011;3594;42.152;24.714;2022-08-19T08:26:20;8.05;;;5.15;;
7104;SDS011;3594;42.152;24.714;2022-08-19T08:28:45;8.30;;;4.65;;
7104;SDS011;3594;42.152;24.714;2022-08-19T08:31:12;6.65;;;4.50;;
7104;SDS011;3594;42.152;24.714;2022-08-19T08:33:37;6.53;;;4.72;;
7104;SDS011;3594;42.152;24.714;2022-08-19T08:36:06;8.10;;;4.82;;
7104;SDS011;3594;42.152;24.714;2022-08-19T08:38:33;6.65;;;4.57;;
7104;SDS011;3594;42.152;24.714;2022-08-19T08:41:44;7.45;;;4.60;;
7104;SDS011;3594;42.152;24.714;2022-08-19T08:43:59;7.18;;;4.90;;
7104;SDS011;3594;42.152;24.714;2022-08-19T08:46:36;6.70;;;4.90;;
7104;SDS011;3594;42.152;24.714;2022-08-19T08:49:13;7.40;;;5.00;;
7104;SDS011;3594;42.152;24.714;2022-08-19T08:51:51;6.47;;;4.63;;
7104;SDS011;3594;42.152;24.714;2022-08-19T08:54:28;7.30;;;4.68;;
7104;SDS011;3594;42.152;24.714;2022-08-19T08:56:58;6.50;;;4.72;;
7104;SDS011;3594;42.152;24.714;2022-08-19T08:59:28;7.88;;;5.00;;
7104;SDS011;3594;42.152;24.714;2022-08-19T09:01:57;6.70;;;4.50;;
7104;SDS011;3594;42.152;24.714;2022-08-19T09:04:23;6.35;;;4.57;;
7104;SDS011;3594;42.152;24.714;2022-08-19T09:09:23;5.60;;;4.28;;
7104;SDS011;3594;42.152;24.714;2022-08-19T09:12:14;5.00;;;3.97;;
7104;SDS011;3594;42.152;24.714;2022-08-19T09:15:00;6.13;;;3.75;;
7104;SDS011;3594;42.152;24.714;2022-08-19T09:17:30;6.32;;;4.80;;
7104;SDS011;3594;42.152;24.714;2022-08-19T09:19:59;6.20;;;4.30;;
7104;SDS011;3594;42.152;24.714;2022-08-19T09:22:33;5.57;;;4.28;;
7104;SDS011;3594;42.152;24.714;2022-08-19T09:25:00;5.65;;;4.13;;
7104;SDS011;3594;42.152;24.714;2022-08-19T09:27:26;5.65;;;4.35;;
7104;SDS011;3594;42.152;24.714;2022-08-19T09:29:53;5.93;;;4.20;;
7104;SDS011;3594;42.152;24.714;2022-08-19T09:32:20;6.57;;;4.32;;
7104;SDS011;3594;42.152;24.714;2022-08-19T09:34:47;6.50;;;4.28;;
7104;SDS011;3594;42.152;24.714;2022-08-19T09:37:12;6.70;;;4.47;;
7104;SDS011;3594;42.152;24.714;2022-08-19T09:39:38;6.85;;;4.75;;
7104;SDS011;3594;42.152;24.714;2022-08-19T09:42:06;6.60;;;4.63;;
7104;SDS011;3594;42.152;24.714;2022-08-19T09:44:38;5.97;;;3.92;;
7104;SDS011;3594;42.152;24.714;2022-08-19T09:47:04;6.30;;;4.50;;
7104;SDS011;3594;42.152;24.714;2022-08-19T09:49:30;6.00;;;4.18;;
7104;SDS011;3594;42.152;24.714;2022-08-19T09:51:56;6.97;;;3.90;;
7104;SDS011;3594;42.152;24.714;2022-08-19T09:54:21;4.88;;;3.53;;
7104;SDS011;3594;42.152;24.714;2022-08-19T09:56:47;5.68;;;3.97;;
7104;SDS011;3594;42.152;24.714;2022-08-19T09:59:12;5.22;;;3.72;;
7104;SDS011;3594;42.152;24.714;2022-08-19T10:01:38;6.22;;;4.03;;
7104;SDS011;3594;42.152;24.714;2022-08-19T10:04:04;5.38;;;3.90;;
7104;SDS011;3594;42.152;24.714;2022-08-19T10:06:34;7.00;;;3.80;;
7104;SDS011;3594;42.152;24.714;2022-08-19T10:09:02;5.45;;;3.88;;
7104;SDS011;3594;42.152;24.714;2022-08-19T10:11:31;5.70;;;4.03;;
7104;SDS011;3594;42.152;24.714;2022-08-19T10:13:56;4.22;;;3.45;;
7104;SDS011;3594;42.152;24.714;2022-08-19T10:16:22;5.95;;;3.80;;
7104;SDS011;3594;42.152;24.714;2022-08-19T10:18:49;6.03;;;3.90;;
7104;SDS011;3594;42.152;24.714;2022-08-19T10:21:22;5.78;;;4.13;;
7104;SDS011;3594;42.152;24.714;2022-08-19T10:23:53;5.80;;;3.83;;
7104;SDS011;3594;42.152;24.714;2022-08-19T10:26:26;6.50;;;4.03;;
7104;SDS011;3594;42.152;24.714;2022-08-19T10:28:53;6.25;;;4.05;;
7104;SDS011;3594;42.152;24.714;2022-08-19T10:31:21;5.55;;;4.10;;
7104;SDS011;3594;42.152;24.714;2022-08-19T10:33:48;5.35;;;3.80;;
7104;SDS011;3594;42.152;24.714;2022-08-19T10:36:19;5.72;;;3.53;;
7104;SDS011;3594;42.152;24.714;2022-08-19T10:38:49;6.45;;;4.10;;
7104;SDS011;3594;42.152;24.714;2022-08-19T10:41:18;5.40;;;3.67;;
7104;SDS011;3594;42.152;24.714;2022-08-19T10:43:45;6.18;;;3.80;;
7104;SDS011;3594;42.152;24.714;2022-08-19T10:46:12;4.97;;;3.50;;
7104;SDS011;3594;42.152;24.714;2022-08-19T10:48:39;5.75;;;3.90;;
7104;SDS011;3594;42.152;24.714;2022-08-19T10:51:05;4.50;;;3.33;;
7104;SDS011;3594;42.152;24.714;2022-08-19T10:53:50;4.72;;;3.60;;
7104;SDS011;3594;42.152;24.714;2022-08-19T10:56:16;6.85;;;3.60;;
7104;SDS011;3594;42.152;24.714;2022-08-19T10:59:01;4.38;;;3.45;;
7104;SDS011;3594;42.152;24.714;2022-08-19T11:01:29;5.20;;;3.20;;
7104;SDS011;3594;42.152;24.714;2022-08-19T11:03:57;4.78;;;3.40;;
7104;SDS011;3594;42.152;24.714;2022-08-19T11:06:23;5.82;;;3.65;;
7104;SDS011;3594;42.152;24.714;2022-08-19T11:08:50;5.63;;;3.58;;
7104;SDS011;3594;42.152;24.714;2022-08-19T11:11:17;4.82;;;3.08;;
7104;SDS011;3594;42.152;24.714;2022-08-19T11:13:43;5.20;;;3.22;;
7104;SDS011;3594;42.152;24.714;2022-08-19T11:16:14;4.88;;;3.58;;
7104;SDS011;3594;42.152;24.714;2022-08-19T11:18:48;5.32;;;3.58;;
7104;SDS011;3594;42.152;24.714;2022-08-19T11:21:20;5.55;;;3.28;;
7104;SDS011;3594;42.152;24.714;2022-08-19T11:23:51;3.92;;;2.83;;
7104;SDS011;3594;42.152;24.714;2022-08-19T11:26:19;3.88;;;2.83;;
7104;SDS011;3594;42.152;24.714;2022-08-19T11:28:46;4.60;;;2.97;;
7104;SDS011;3594;42.152;24.714;2022-08-19T11:31:12;4.13;;;3.25;;
7104;SDS011;3594;42.152;24.714;2022-08-19T11:33:39;4.82;;;3.47;;
7104;SDS011;3594;42.152;24.714;2022-08-19T11:36:05;4.68;;;3.58;;
7104;SDS011;3594;42.152;24.714;2022-08-19T11:38:32;5.03;;;3.28;;
7104;SDS011;3594;42.152;24.714;2022-08-19T11:40:59;4.70;;;3.38;;
7104;SDS011;3594;42.152;24.714;2022-08-19T11:43:26;4.78;;;3.53;;
7104;SDS011;3594;42.152;24.714;2022-08-19T11:45:53;5.97;;;3.85;;
7104;SDS011;3594;42.152;24.714;2022-08-19T11:48:20;3.92;;;3.13;;
7104;SDS011;3594;42.152;24.714;2022-08-19T11:50:52;4.90;;;3.33;;
7104;SDS011;3594;42.152;24.714;2022-08-19T11:53:21;4.13;;;3.00;;
7104;SDS011;3594;42.152;24.714;2022-08-19T11:55:48;4.65;;;3.60;;
7104;SDS011;3594;42.152;24.714;2022-08-19T11:58:14;7.22;;;3.20;;
7104;SDS011;3594;42.152;24.714;2022-08-19T12:00:40;4.65;;;3.53;;
7104;SDS011;3594;42.152;24.714;2022-08-19T12:03:06;4.45;;;3.35;;
7104;SDS011;3594;42.152;24.714;2022-08-19T12:05:33;5.40;;;3.85;;
7104;SDS011;3594;42.152;24.714;2022-08-19T12:08:00;5.55;;;3.60;;
7104;SDS011;3594;42.152;24.714;2022-08-19T12:10:26;6.28;;;3.60;;
7104;SDS011;3594;42.152;24.714;2022-08-19T12:12:51;5.45;;;3.53;;
7104;SDS011;3594;42.152;24.714;2022-08-19T12:15:17;4.53;;;3.33;;
7104;SDS011;3594;42.152;24.714;2022-08-19T12:17:42;4.60;;;3.25;;
7104;SDS011;3594;42.152;24.714;2022-08-19T12:20:09;5.13;;;3.50;;
7104;SDS011;3594;42.152;24.714;2022-08-19T12:22:36;5.60;;;3.38;;
7104;SDS011;3594;42.152;24.714;2022-08-19T12:25:05;4.72;;;3.20;;
7104;SDS011;3594;42.152;24.714;2022-08-19T12:27:32;5.07;;;3.40;;
7104;SDS011;3594;42.152;24.714;2022-08-19T12:29:58;4.28;;;3.20;;
7104;SDS011;3594;42.152;24.714;2022-08-19T12:32:25;6.88;;;3.83;;
7104;SDS011;3594;42.152;24.714;2022-08-19T12:34:51;4.63;;;3.13;;
7104;SDS011;3594;42.152;24.714;2022-08-19T12:37:16;6.78;;;3.65;;
7104;SDS011;3594;42.152;24.714;2022-08-19T12:39:42;4.80;;;3.10;;
7104;SDS011;3594;42.152;24.714;2022-08-19T12:42:09;4.68;;;3.60;;
7104;SDS011;3594;42.152;24.714;2022-08-19T12:44:37;4.50;;;3.40;;
7104;SDS011;3594;42.152;24.714;2022-08-19T12:47:04;4.68;;;3.40;;
7104;SDS011;3594;42.152;24.714;2022-08-19T12:49:32;5.10;;;3.60;;
7104;SDS011;3594;42.152;24.714;2022-08-19T12:52:01;4.82;;;3.55;;
7104;SDS011;3594;42.152;24.714;2022-08-19T12:54:32;4.40;;;3.35;;
7104;SDS011;3594;42.152;24.714;2022-08-19T12:56:58;4.22;;;3.30;;
7104;SDS011;3594;42.152;24.714;2022-08-19T12:59:25;6.90;;;3.47;;
7104;SDS011;3594;42.152;24.714;2022-08-19T13:01:51;4.15;;;3.25;;
7104;SDS011;3594;42.152;24.714;2022-08-19T13:04:16;4.25;;;3.20;;
7104;SDS011;3594;42.152;24.714;2022-08-19T13:06:42;6.82;;;3.20;;
7104;SDS011;3594;42.152;24.714;2022-08-19T13:09:08;5.55;;;3.60;;
7104;SDS011;3594;42.152;24.714;2022-08-19T13:11:34;4.47;;;3.20;;
7104;SDS011;3594;42.152;24.714;2022-08-19T13:14:00;4.65;;;3.33;;
7104;SDS011;3594;42.152;24.714;2022-08-19T13:16:26;4.45;;;3.47;;
7104;SDS011;3594;42.152;24.714;2022-08-19T13:18:53;5.20;;;3.35;;
7104;SDS011;3594;42.152;24.714;2022-08-19T13:21:21;7.03;;;3.75;;
7104;SDS011;3594;42.152;24.714;2022-08-19T13:23:48;5.05;;;3.83;;
7104;SDS011;3594;42.152;24.714;2022-08-19T13:26:15;5.55;;;3.70;;
7104;SDS011;3594;42.152;24.714;2022-08-19T13:28:42;5.57;;;3.60;;
7104;SDS011;3594;42.152;24.714;2022-08-19T13:31:28;9.25;;;4.78;;
7104;SDS011;3594;42.152;24.714;2022-08-19T13:34:15;4.93;;;3.50;;
7104;SDS011;3594;42.152;24.714;2022-08-19T13:36:42;4.38;;;3.42;;
7104;SDS011;3594;42.152;24.714;2022-08-19T13:39:08;5.53;;;3.70;;
7104;SDS011;3594;42.152;24.714;2022-08-19T13:41:34;5.30;;;3.70;;
7104;SDS011;3594;42.152;24.714;2022-08-19T13:44:01;4.07;;;3.17;;
7104;SDS011;3594;42.152;24.714;2022-08-19T13:46:27;4.22;;;2.92;;
7104;SDS011;3594;42.152;24.714;2022-08-19T13:48:54;4.68;;;3.50;;
7104;SDS011;3594;42.152;24.714;2022-08-19T13:51:20;5.15;;;3.53;;
7104;SDS011;3594;42.152;24.714;2022-08-19T13:53:45;6.30;;;3.67;;
7104;SDS011;3594;42.152;24.714;2022-08-19T13:56:12;4.00;;;3.08;;
7104;SDS011;3594;42.152;24.714;2022-08-19T13:58:39;5.00;;;3.50;;
7104;SDS011;3594;42.152;24.714;2022-08-19T14:01:05;5.93;;;3.60;;
7104;SDS011;3594;42.152;24.714;2022-08-19T14:03:31;5.28;;;3.58;;
7104;SDS011;3594;42.152;24.714;2022-08-19T14:05:58;4.95;;;2.90;;
7104;SDS011;3594;42.152;24.714;2022-08-19T14:08:24;6.03;;;3.75;;
7104;SDS011;3594;42.152;24.714;2022-08-19T14:10:50;5.70;;;3.40;;
7104;SDS011;3594;42.152;24.714;2022-08-19T14:13:17;4.13;;;3.20;;
7104;SDS011;3594;42.152;24.714;2022-08-19T14:15:45;7.10;;;3.40;;
7104;SDS011;3594;42.152;24.714;2022-08-19T14:18:12;5.35;;;3.50;;
7104;SDS011;3594;42.152;24.714;2022-08-19T14:20:38;5.13;;;3.72;;
7104;SDS011;3594;42.152;24.714;2022-08-19T14:23:03;6.70;;;3.70;;
7104;SDS011;3594;42.152;24.714;2022-08-19T14:25:31;4.55;;;3.50;;
7104;SDS011;3594;42.152;24.714;2022-08-19T14:27:57;4.57;;;3.25;;
7104;SDS011;3594;42.152;24.714;2022-08-19T14:30:25;5.30;;;3.53;;
7104;SDS011;3594;42.152;24.714;2022-08-19T14:32:58;4.43;;;3.40;;
7104;SDS011;3594;42.152;24.714;2022-08-19T14:35:25;4.63;;;3.42;;
7104;SDS011;3594;42.152;24.714;2022-08-19T14:37:52;4.25;;;3.40;;
7104;SDS011;3594;42.152;24.714;2022-08-19T14:40:25;5.55;;;3.50;;
7104;SDS011;3594;42.152;24.714;2022-08-19T14:42:53;4.43;;;3.47;;
7104;SDS011;3594;42.152;24.714;2022-08-19T14:45:24;5.22;;;3.40;;
7104;SDS011;3594;42.152;24.714;2022-08-19T14:47:53;5.20;;;3.50;;
7104;SDS011;3594;42.152;24.714;2022-08-19T14:50:19;4.60;;;3.40;;
7104;SDS011;3594;42.152;24.714;2022-08-19T14:52:45;5.93;;;3.38;;
7104;SDS011;3594;42.152;24.714;2022-08-19T14:55:13;7.07;;;3.55;;
7104;SDS011;3594;42.152;24.714;2022-08-19T14:57:42;4.35;;;3.22;;
7104;SDS011;3594;42.152;24.714;2022-08-19T15:00:08;5.22;;;3.72;;
7104;SDS011;3594;42.152;24.714;2022-08-19T15:02:41;4.88;;;3.20;;
7104;SDS011;3594;42.152;24.714;2022-08-19T15:05:09;5.05;;;3.50;;
7104;SDS011;3594;42.152;24.714;2022-08-19T15:07:35;5.20;;;3.70;;
7104;SDS011;3594;42.152;24.714;2022-08-19T15:10:02;5.07;;;3.55;;
7104;SDS011;3594;42.152;24.714;2022-08-19T15:12:28;3.85;;;3.08;;